sensor_id;sensor_type;location;lat;lon;timestamp;pressure;altitude;pressure_sealevel;temperature;humidity
64739;BME280;51175;51.186;0.276;2023-02-20T00:00:07;102315.00;;;13.88;69.31
64739;BME280;51175;51.186;0.276;2023-02-20T00:00:38;102316.03;;;13.87;69.57
64739;BME280;51175;51.186;0.276;2023-02-20T00:01:09;102314.19;;;13.87;69.38
64739;BME280;51175;51.186;0.276;2023-02-20T00:01:48;102311.53;;;13.87;69.45
64739;BME280;51175;51.186;0.276;2023-02-20T00:02:19;102318.69;;;13.87;69.33
64739;BME280;51175;51.186;0.276;2023-02-20T00:02:50;102316.84;;;13.87;69.33
64739;BME280;51175;51.186;0.276;2023-02-20T00:03:20;102306.25;;;13.87;69.39
64739;BME280;51175;51.186;0.276;2023-02-20T00:03:50;102317.88;;;13.86;69.75
64739;BME280;51175;51.186;0.276;2023-02-20T00:04:21;102315.22;;;13.86;69.79
64739;BME280;51175;51.186;0.276;2023-02-20T00:04:51;102317.09;;;13.86;69.58
64739;BME280;51175;51.186;0.276;2023-02-20T00:05:21;102308.31;;;13.85;69.16
64739;BME280;51175;51.186;0.276;2023-02-20T00:05:52;102315.47;;;13.85;69.62
64739;BME280;51175;51.186;0.276;2023-02-20T00:06:22;102310.16;;;13.85;69.52
64739;BME280;51175;51.186;0.276;2023-02-20T00:06:53;102321.59;;;13.85;69.40
64739;BME280;51175;51.186;0.276;2023-02-20T00:07:23;102317.34;;;13.84;69.57
64739;BME280;51175;51.186;0.276;2023-02-20T00:07:54;102312.81;;;13.85;69.45
64739;BME280;51175;51.186;0.276;2023-02-20T00:08:24;102323.44;;;13.85;69.57
64739;BME280;51175;51.186;0.276;2023-02-20T00:08:54;102318.13;;;13.85;69.71
64739;BME280;51175;51.186;0.276;2023-02-20T00:09:25;102320.78;;;13.85;69.68
64739;BME280;51175;51.186;0.276;2023-02-20T00:09:55;102312.81;;;13.85;69.61
64739;BME280;51175;51.186;0.276;2023-02-20T00:10:27;102320.00;;;13.84;69.45
64739;BME280;51175;51.186;0.276;2023-02-20T00:10:57;102308.56;;;13.84;69.61
64739;BME280;51175;51.186;0.276;2023-02-20T00:11:28;102316.50;;;13.84;69.80
64739;BME280;51175;51.186;0.276;2023-02-20T00:11:59;102321.81;;;13.84;69.43
64739;BME280;51175;51.186;0.276;2023-02-20T00:12:29;102316.50;;;13.84;69.77
64739;BME280;51175;51.186;0.276;2023-02-20T00:13:00;102318.34;;;13.83;69.32
64739;BME280;51175;51.186;0.276;2023-02-20T00:13:30;102321.81;;;13.84;69.67
64739;BME280;51175;51.186;0.276;2023-02-20T00:14:00;102310.38;;;13.83;69.76
64739;BME280;51175;51.186;0.276;2023-02-20T00:14:31;102307.72;;;13.83;69.63
64739;BME280;51175;51.186;0.276;2023-02-20T00:15:01;102313.03;;;13.83;69.57
64739;BME280;51175;51.186;0.276;2023-02-20T00:15:32;102313.03;;;13.83;69.63
64739;BME280;51175;51.186;0.276;2023-02-20T00:16:02;102316.75;;;13.82;69.76
64739;BME280;51175;51.186;0.276;2023-02-20T00:16:33;102316.75;;;13.82;69.47
64739;BME280;51175;51.186;0.276;2023-02-20T00:17:03;102306.13;;;13.82;69.47
64739;BME280;51175;51.186;0.276;2023-02-20T00:17:33;102311.44;;;13.82;69.75
64739;BME280;51175;51.186;0.276;2023-02-20T00:18:04;102315.94;;;13.82;69.60
64739;BME280;51175;51.186;0.276;2023-02-20T00:18:36;102304.53;;;13.81;69.92
64739;BME280;51175;51.186;0.276;2023-02-20T00:19:06;102307.19;;;13.81;69.68
64739;BME280;51175;51.186;0.276;2023-02-20T00:19:36;102309.03;;;13.81;69.76
64739;BME280;51175;51.186;0.276;2023-02-20T00:20:07;102309.03;;;13.81;69.75
64739;BME280;51175;51.186;0.276;2023-02-20T00:20:37;102304.53;;;13.81;70.01
64739;BME280;51175;51.186;0.276;2023-02-20T00:21:08;102298.41;;;13.81;69.97
64739;BME280;51175;51.186;0.276;2023-02-20T00:21:44;102300.25;;;13.80;69.66
64739;BME280;51175;51.186;0.276;2023-02-20T00:22:15;102305.56;;;13.80;69.86
64739;BME280;51175;51.186;0.276;2023-02-20T00:22:46;102300.25;;;13.80;69.75
64739;BME280;51175;51.186;0.276;2023-02-20T00:23:16;102301.06;;;13.81;69.98
64739;BME280;51175;51.186;0.276;2023-02-20T00:23:46;102296.78;;;13.80;69.89
64739;BME280;51175;51.186;0.276;2023-02-20T00:24:17;102301.06;;;13.81;69.87
64739;BME280;51175;51.186;0.276;2023-02-20T00:24:48;102300.25;;;13.80;70.18
64739;BME280;51175;51.186;0.276;2023-02-20T00:25:20;102287.78;;;13.81;69.86
64739;BME280;51175;51.186;0.276;2023-02-20T00:25:50;102301.06;;;13.81;69.76
64739;BME280;51175;51.186;0.276;2023-02-20T00:26:20;102294.94;;;13.80;69.74
64739;BME280;51175;51.186;0.276;2023-02-20T00:26:52;102292.28;;;13.80;69.80
64739;BME280;51175;51.186;0.276;2023-02-20T00:27:22;102296.78;;;13.80;69.93
64739;BME280;51175;51.186;0.276;2023-02-20T00:27:52;102301.28;;;13.79;70.03
64739;BME280;51175;51.186;0.276;2023-02-20T00:28:23;102294.13;;;13.80;69.74
64739;BME280;51175;51.186;0.276;2023-02-20T00:28:53;102299.69;;;13.78;69.38
64739;BME280;51175;51.186;0.276;2023-02-20T00:29:24;102298.63;;;13.79;69.57
64739;BME280;51175;51.186;0.276;2023-02-20T00:29:54;102294.38;;;13.78;69.62
64739;BME280;51175;51.186;0.276;2023-02-20T00:30:25;102289.06;;;13.78;69.53
64739;BME280;51175;51.186;0.276;2023-02-20T00:30:55;102294.38;;;13.78;69.95
64739;BME280;51175;51.186;0.276;2023-02-20T00:31:26;102294.38;;;13.78;69.80
64739;BME280;51175;51.186;0.276;2023-02-20T00:31:57;102289.06;;;13.78;69.59
64739;BME280;51175;51.186;0.276;2023-02-20T00:32:27;102285.59;;;13.77;69.65
64739;BME280;51175;51.186;0.276;2023-02-20T00:32:58;102287.44;;;13.77;70.00
64739;BME280;51175;51.186;0.276;2023-02-20T00:33:28;102282.13;;;13.77;69.70
64739;BME280;51175;51.186;0.276;2023-02-20T00:34:00;102281.34;;;13.76;69.74
64739;BME280;51175;51.186;0.276;2023-02-20T00:34:30;102280.53;;;13.76;69.87
64739;BME280;51175;51.186;0.276;2023-02-20T00:35:01;102271.75;;;13.75;69.87
64739;BME280;51175;51.186;0.276;2023-02-20T00:35:31;102270.94;;;13.75;69.67
64739;BME280;51175;51.186;0.276;2023-02-20T00:36:02;102274.41;;;13.75;69.61
64739;BME280;51175;51.186;0.276;2023-02-20T00:36:33;102273.59;;;13.75;69.90
64739;BME280;51175;51.186;0.276;2023-02-20T00:37:03;102275.44;;;13.74;69.90
64739;BME280;51175;51.186;0.276;2023-02-20T00:37:33;102272.78;;;13.74;69.98
64739;BME280;51175;51.186;0.276;2023-02-20T00:38:04;102270.94;;;13.75;69.71
64739;BME280;51175;51.186;0.276;2023-02-20T00:38:34;102277.28;;;13.74;69.93
64739;BME280;51175;51.186;0.276;2023-02-20T00:39:04;102276.50;;;13.73;69.72
64739;BME280;51175;51.186;0.276;2023-02-20T00:39:35;102274.63;;;13.74;69.92
64739;BME280;51175;51.186;0.276;2023-02-20T00:40:06;102280.75;;;13.74;69.92
64739;BME280;51175;51.186;0.276;2023-02-20T00:40:36;102286.06;;;13.74;69.54
64739;BME280;51175;51.186;0.276;2023-02-20T00:41:07;102277.28;;;13.74;69.92
64739;BME280;51175;51.186;0.276;2023-02-20T00:41:37;102281.81;;;13.73;69.73
64739;BME280;51175;51.186;0.276;2023-02-20T00:42:07;102278.09;;;13.74;70.22
64739;BME280;51175;51.186;0.276;2023-02-20T00:42:38;102276.50;;;13.73;69.87
64739;BME280;51175;51.186;0.276;2023-02-20T00:43:08;102279.94;;;13.74;69.67
64739;BME280;51175;51.186;0.276;2023-02-20T00:43:40;102281.81;;;13.73;69.93
64739;BME280;51175;51.186;0.276;2023-02-20T00:44:11;102271.19;;;13.73;69.91
64739;BME280;51175;51.186;0.276;2023-02-20T00:44:41;102272.22;;;13.72;69.71
64739;BME280;51175;51.186;0.276;2023-02-20T00:45:13;102280.19;;;13.72;69.56
64739;BME280;51175;51.186;0.276;2023-02-20T00:45:43;102273.03;;;13.73;69.63
64739;BME280;51175;51.186;0.276;2023-02-20T00:46:14;102270.63;;;13.71;69.78
64739;BME280;51175;51.186;0.276;2023-02-20T00:46:45;102269.78;;;13.71;69.73
64739;BME280;51175;51.186;0.276;2023-02-20T00:47:16;102266.34;;;13.70;69.62
64739;BME280;51175;51.186;0.276;2023-02-20T00:47:46;102271.66;;;13.70;69.80
64739;BME280;51175;51.186;0.276;2023-02-20T00:48:17;102270.84;;;13.70;69.85
64739;BME280;51175;51.186;0.276;2023-02-20T00:48:47;102271.66;;;13.70;69.81
64739;BME280;51175;51.186;0.276;2023-02-20T00:49:20;102268.19;;;13.70;69.66
64739;BME280;51175;51.186;0.276;2023-02-20T00:49:50;102276.16;;;13.70;69.97
64739;BME280;51175;51.186;0.276;2023-02-20T00:50:20;102273.50;;;13.70;69.55
64739;BME280;51175;51.186;0.276;2023-02-20T00:50:51;102276.16;;;13.70;69.64
64739;BME280;51175;51.186;0.276;2023-02-20T00:51:21;102276.16;;;13.70;69.79
64739;BME280;51175;51.186;0.276;2023-02-20T00:51:51;102274.56;;;13.69;69.79
64739;BME280;51175;51.186;0.276;2023-02-20T00:52:22;102274.56;;;13.69;69.95
64739;BME280;51175;51.186;0.276;2023-02-20T00:52:52;102274.56;;;13.69;69.67
64739;BME280;51175;51.186;0.276;2023-02-20T00:53:23;102273.75;;;13.68;69.78
64739;BME280;51175;51.186;0.276;2023-02-20T00:53:53;102266.59;;;13.69;69.58
64739;BME280;51175;51.186;0.276;2023-02-20T00:54:23;102263.94;;;13.69;69.77
64739;BME280;51175;51.186;0.276;2023-02-20T00:54:54;102261.53;;;13.67;69.53
64739;BME280;51175;51.186;0.276;2023-02-20T00:55:24;102268.44;;;13.68;69.67
64739;BME280;51175;51.186;0.276;2023-02-20T00:55:54;102264.19;;;13.67;69.74
64739;BME280;51175;51.186;0.276;2023-02-20T00:56:25;102266.81;;;13.67;69.69
64739;BME280;51175;51.186;0.276;2023-02-20T00:56:55;102270.28;;;13.68;69.49
64739;BME280;51175;51.186;0.276;2023-02-20T00:57:26;102269.47;;;13.67;69.63
64739;BME280;51175;51.186;0.276;2023-02-20T00:57:56;102266.00;;;13.67;69.87
64739;BME280;51175;51.186;0.276;2023-02-20T00:58:26;102266.00;;;13.67;69.55
64739;BME280;51175;51.186;0.276;2023-02-20T00:58:57;102269.69;;;13.65;69.67
64739;BME280;51175;51.186;0.276;2023-02-20T00:59:27;102256.41;;;13.65;69.67
64739;BME280;51175;51.186;0.276;2023-02-20T00:59:57;102271.56;;;13.65;69.66
64739;BME280;51175;51.186;0.276;2023-02-20T01:00:29;102268.91;;;13.65;69.69
64739;BME280;51175;51.186;0.276;2023-02-20T01:00:59;102270.75;;;13.64;69.67
64739;BME280;51175;51.186;0.276;2023-02-20T01:01:30;102260.94;;;13.65;69.71
64739;BME280;51175;51.186;0.276;2023-02-20T01:02:00;102262.78;;;13.64;69.66
64739;BME280;51175;51.186;0.276;2023-02-20T01:02:31;102262.53;;;13.66;69.81
64739;BME280;51175;51.186;0.276;2023-02-20T01:03:01;102267.03;;;13.65;69.90
64739;BME280;51175;51.186;0.276;2023-02-20T01:03:32;102260.13;;;13.64;69.83
64739;BME280;51175;51.186;0.276;2023-02-20T01:04:03;102254.56;;;13.66;70.05
64739;BME280;51175;51.186;0.276;2023-02-20T01:04:33;102258.03;;;13.67;69.85
64739;BME280;51175;51.186;0.276;2023-02-20T01:05:04;102263.34;;;13.67;69.90
64739;BME280;51175;51.186;0.276;2023-02-20T01:05:35;102256.41;;;13.65;69.62
64739;BME280;51175;51.186;0.276;2023-02-20T01:06:05;102254.56;;;13.66;69.68
64739;BME280;51175;51.186;0.276;2023-02-20T01:06:35;102263.59;;;13.65;69.96
64739;BME280;51175;51.186;0.276;2023-02-20T01:07:06;102258.28;;;13.65;69.78
64739;BME280;51175;51.186;0.276;2023-02-20T01:07:36;102264.38;;;13.65;69.59
64739;BME280;51175;51.186;0.276;2023-02-20T01:08:06;102252.16;;;13.64;69.69
64739;BME280;51175;51.186;0.276;2023-02-20T01:08:37;102260.13;;;13.64;69.67
64739;BME280;51175;51.186;0.276;2023-02-20T01:09:07;102263.84;;;13.63;69.73
64739;BME280;51175;51.186;0.276;2023-02-20T01:09:37;102258.53;;;13.63;69.74
64739;BME280;51175;51.186;0.276;2023-02-20T01:10:09;102263.84;;;13.63;69.72
64739;BME280;51175;51.186;0.276;2023-02-20T01:10:40;102256.88;;;13.62;69.83
64739;BME280;51175;51.186;0.276;2023-02-20T01:11:10;102262.19;;;13.62;69.82
64739;BME280;51175;51.186;0.276;2023-02-20T01:11:44;102268.31;;;13.63;69.75
64739;BME280;51175;51.186;0.276;2023-02-20T01:12:14;102262.19;;;13.62;69.88
64739;BME280;51175;51.186;0.276;2023-02-20T01:12:44;102250.78;;;13.62;69.92
64739;BME280;51175;51.186;0.276;2023-02-20T01:13:15;102260.59;;;13.61;69.75
64739;BME280;51175;51.186;0.276;2023-02-20T01:13:46;102255.28;;;13.61;69.70
64739;BME280;51175;51.186;0.276;2023-02-20T01:14:16;102259.78;;;13.61;69.56
64739;BME280;51175;51.186;0.276;2023-02-20T01:14:46;102261.41;;;13.62;69.88
64739;BME280;51175;51.186;0.276;2023-02-20T01:15:17;102260.59;;;13.61;69.97
64739;BME280;51175;51.186;0.276;2023-02-20T01:15:47;102249.16;;;13.61;69.92
64739;BME280;51175;51.186;0.276;2023-02-20T01:16:17;102271.22;;;13.61;69.88
64739;BME280;51175;51.186;0.276;2023-02-20T01:16:51;102266.97;;;13.60;69.90
64739;BME280;51175;51.186;0.276;2023-02-20T01:17:21;102253.69;;;13.60;69.94
64739;BME280;51175;51.186;0.276;2023-02-20T01:17:52;102252.88;;;13.60;70.05
64739;BME280;51175;51.186;0.276;2023-02-20T01:18:22;102251.25;;;13.59;69.53
64739;BME280;51175;51.186;0.276;2023-02-20T01:18:53;102252.06;;;13.59;70.14
64739;BME280;51175;51.186;0.276;2023-02-20T01:19:23;102247.56;;;13.60;69.92
64739;BME280;51175;51.186;0.276;2023-02-20T01:19:53;102248.63;;;13.59;69.96
64739;BME280;51175;51.186;0.276;2023-02-20T01:20:25;102260.84;;;13.60;69.96
64739;BME280;51175;51.186;0.276;2023-02-20T01:20:55;102256.56;;;13.59;70.00
64739;BME280;51175;51.186;0.276;2023-02-20T01:21:25;102258.41;;;13.58;69.91
64739;BME280;51175;51.186;0.276;2023-02-20T01:21:56;102257.59;;;13.58;69.98
64739;BME280;51175;51.186;0.276;2023-02-20T01:22:26;102250.44;;;13.58;69.85
64739;BME280;51175;51.186;0.276;2023-02-20T01:22:57;102236.38;;;13.58;69.67
64739;BME280;51175;51.186;0.276;2023-02-20T01:23:27;102251.50;;;13.57;69.78
64739;BME280;51175;51.186;0.276;2023-02-20T01:23:57;102253.34;;;13.57;69.97
64739;BME280;51175;51.186;0.276;2023-02-20T01:24:28;102245.38;;;13.57;69.90
64739;BME280;51175;51.186;0.276;2023-02-20T01:24:58;102245.38;;;13.57;69.86
64739;BME280;51175;51.186;0.276;2023-02-20T01:25:28;102249.09;;;13.56;70.14
64739;BME280;51175;51.186;0.276;2023-02-20T01:25:59;102257.84;;;13.56;69.76
64739;BME280;51175;51.186;0.276;2023-02-20T01:26:29;102249.09;;;13.56;70.08
64739;BME280;51175;51.186;0.276;2023-02-20T01:26:59;102247.22;;;13.56;70.10
64739;BME280;51175;51.186;0.276;2023-02-20T01:27:30;102240.31;;;13.55;70.14
64739;BME280;51175;51.186;0.276;2023-02-20T01:28:00;102249.09;;;13.56;69.96
64739;BME280;51175;51.186;0.276;2023-02-20T01:28:31;102243.78;;;13.56;69.99
64739;BME280;51175;51.186;0.276;2023-02-20T01:29:02;102244.00;;;13.54;70.04
64739;BME280;51175;51.186;0.276;2023-02-20T01:29:34;102240.31;;;13.55;69.98
64739;BME280;51175;51.186;0.276;2023-02-20T01:30:06;102251.97;;;13.54;70.18
64739;BME280;51175;51.186;0.276;2023-02-20T01:30:36;102247.44;;;13.55;70.17
64739;BME280;51175;51.186;0.276;2023-02-20T01:31:06;102251.97;;;13.54;69.99
64739;BME280;51175;51.186;0.276;2023-02-20T01:31:37;102252.75;;;13.55;70.10
64739;BME280;51175;51.186;0.276;2023-02-20T01:32:10;102250.09;;;13.55;69.94
64739;BME280;51175;51.186;0.276;2023-02-20T01:32:40;102242.97;;;13.55;70.14
64739;BME280;51175;51.186;0.276;2023-02-20T01:33:11;102244.81;;;13.55;70.01
64739;BME280;51175;51.186;0.276;2023-02-20T01:33:42;102251.16;;;13.53;70.17
64739;BME280;51175;51.186;0.276;2023-02-20T01:34:12;102239.72;;;13.53;70.10
64739;BME280;51175;51.186;0.276;2023-02-20T01:34:42;102238.72;;;13.54;69.97
64739;BME280;51175;51.186;0.276;2023-02-20T01:35:14;102235.22;;;13.53;69.92
64739;BME280;51175;51.186;0.276;2023-02-20T01:35:44;102245.03;;;13.53;70.08
64739;BME280;51175;51.186;0.276;2023-02-20T01:36:15;102244.00;;;13.54;70.11
64739;BME280;51175;51.186;0.276;2023-02-20T01:36:47;102239.72;;;13.53;70.04
64739;BME280;51175;51.186;0.276;2023-02-20T01:37:18;102231.75;;;13.53;70.30
64739;BME280;51175;51.186;0.276;2023-02-20T01:37:48;102237.88;;;13.53;70.24
64739;BME280;51175;51.186;0.276;2023-02-20T01:38:19;102233.41;;;13.54;70.30
64739;BME280;51175;51.186;0.276;2023-02-20T01:38:49;102239.72;;;13.53;70.10
64739;BME280;51175;51.186;0.276;2023-02-20T01:39:25;102235.22;;;13.53;69.98
64739;BME280;51175;51.186;0.276;2023-02-20T01:39:56;102233.63;;;13.52;70.00
64739;BME280;51175;51.186;0.276;2023-02-20T01:40:27;102237.06;;;13.53;69.99
64739;BME280;51175;51.186;0.276;2023-02-20T01:40:57;102235.47;;;13.52;70.24
64739;BME280;51175;51.186;0.276;2023-02-20T01:41:28;102236.28;;;13.52;70.08
64739;BME280;51175;51.186;0.276;2023-02-20T01:42:05;102233.63;;;13.52;70.05
64739;BME280;51175;51.186;0.276;2023-02-20T01:42:36;102234.66;;;13.51;70.16
64739;BME280;51175;51.186;0.276;2023-02-20T01:43:07;102236.28;;;13.52;70.02
64739;BME280;51175;51.186;0.276;2023-02-20T01:43:37;102230.16;;;13.52;70.27
64739;BME280;51175;51.186;0.276;2023-02-20T01:44:18;102231.22;;;13.51;70.06
64739;BME280;51175;51.186;0.276;2023-02-20T01:44:49;102236.53;;;13.51;70.33
64739;BME280;51175;51.186;0.276;2023-02-20T01:45:53;102241.84;;;13.51;70.00
64739;BME280;51175;51.186;0.276;2023-02-20T01:46:58;102234.88;;;13.50;70.21
64739;BME280;51175;51.186;0.276;2023-02-20T01:47:28;102227.94;;;13.49;70.11
64739;BME280;51175;51.186;0.276;2023-02-20T01:47:59;102234.88;;;13.50;70.39
64739;BME280;51175;51.186;0.276;2023-02-20T01:48:29;102234.06;;;13.49;70.35
64739;BME280;51175;51.186;0.276;2023-02-20T01:49:12;102225.28;;;13.49;70.14
64739;BME280;51175;51.186;0.276;2023-02-20T01:49:47;102226.34;;;13.48;70.30
64739;BME280;51175;51.186;0.276;2023-02-20T01:50:30;102230.84;;;13.47;70.31
64739;BME280;51175;51.186;0.276;2023-02-20T01:51:01;102225.53;;;13.47;70.27
64739;BME280;51175;51.186;0.276;2023-02-20T01:51:35;102223.13;;;13.46;70.36
64739;BME280;51175;51.186;0.276;2023-02-20T01:52:39;102231.91;;;13.46;70.10
64739;BME280;51175;51.186;0.276;2023-02-20T01:53:07;102233.72;;;13.46;70.27
64739;BME280;51175;51.186;0.276;2023-02-20T01:53:39;102225.78;;;13.46;70.19
64739;BME280;51175;51.186;0.276;2023-02-20T01:54:13;102221.50;;;13.45;70.17
64739;BME280;51175;51.186;0.276;2023-02-20T01:54:48;102226.81;;;13.45;70.34
64739;BME280;51175;51.186;0.276;2023-02-20T01:55:26;102235.56;;;13.45;70.22
64739;BME280;51175;51.186;0.276;2023-02-20T01:56:03;102228.44;;;13.46;70.09
64739;BME280;51175;51.186;0.276;2023-02-20T01:56:35;102240.09;;;13.45;70.15
64739;BME280;51175;51.186;0.276;2023-02-20T01:57:08;102230.25;;;13.45;70.36
64739;BME280;51175;51.186;0.276;2023-02-20T01:57:47;102236.63;;;13.44;70.35
64739;BME280;51175;51.186;0.276;2023-02-20T01:58:28;102241.94;;;13.44;70.30
64739;BME280;51175;51.186;0.276;2023-02-20T01:59:01;102233.97;;;13.44;70.15
64739;BME280;51175;51.186;0.276;2023-02-20T01:59:35;102224.16;;;13.45;70.07
64739;BME280;51175;51.186;0.276;2023-02-20T02:00:12;102224.41;;;13.43;70.29
64739;BME280;51175;51.186;0.276;2023-02-20T02:00:43;102232.38;;;13.43;70.29
64739;BME280;51175;51.186;0.276;2023-02-20T02:01:14;102227.06;;;13.43;70.20
64739;BME280;51175;51.186;0.276;2023-02-20T02:01:45;102225.19;;;13.44;70.37
64739;BME280;51175;51.186;0.276;2023-02-20T02:02:15;102236.63;;;13.44;70.38
64739;BME280;51175;51.186;0.276;2023-02-20T02:02:53;102223.59;;;13.43;70.15
64739;BME280;51175;51.186;0.276;2023-02-20T02:03:27;102222.00;;;13.41;70.20
64739;BME280;51175;51.186;0.276;2023-02-20T02:04:02;102236.03;;;13.42;70.37
64739;BME280;51175;51.186;0.276;2023-02-20T02:04:35;102213.22;;;13.41;70.37
64739;BME280;51175;51.186;0.276;2023-02-20T02:05:09;102216.69;;;13.41;70.40
64739;BME280;51175;51.186;0.276;2023-02-20T02:05:42;102223.81;;;13.41;70.20
64739;BME280;51175;51.186;0.276;2023-02-20T02:06:14;102217.69;;;13.40;70.38
64739;BME280;51175;51.186;0.276;2023-02-20T02:06:48;102217.69;;;13.40;70.22
64739;BME280;51175;51.186;0.276;2023-02-20T02:07:19;102216.69;;;13.41;70.27
64739;BME280;51175;51.186;0.276;2023-02-20T02:07:50;102217.69;;;13.40;70.44
64739;BME280;51175;51.186;0.276;2023-02-20T02:08:22;102215.88;;;13.41;70.18
64739;BME280;51175;51.186;0.276;2023-02-20T02:08:55;102214.25;;;13.40;70.53
64739;BME280;51175;51.186;0.276;2023-02-20T02:09:36;102212.63;;;13.39;70.18
64739;BME280;51175;51.186;0.276;2023-02-20T02:10:18;102207.31;;;13.39;70.30
64739;BME280;51175;51.186;0.276;2023-02-20T02:11:05;102212.63;;;13.39;70.32
64739;BME280;51175;51.186;0.276;2023-02-20T02:11:36;102210.78;;;13.39;70.15
64739;BME280;51175;51.186;0.276;2023-02-20T02:12:08;102208.13;;;13.39;70.28
64739;BME280;51175;51.186;0.276;2023-02-20T02:12:39;102203.06;;;13.38;70.18
64739;BME280;51175;51.186;0.276;2023-02-20T02:13:09;102203.06;;;13.38;70.15
64739;BME280;51175;51.186;0.276;2023-02-20T02:13:41;102202.25;;;13.37;70.39
64739;BME280;51175;51.186;0.276;2023-02-20T02:14:12;102205.72;;;13.38;70.11
64739;BME280;51175;51.186;0.276;2023-02-20T02:14:43;102204.91;;;13.37;70.26
64739;BME280;51175;51.186;0.276;2023-02-20T02:15:15;102200.41;;;13.38;70.00
64739;BME280;51175;51.186;0.276;2023-02-20T02:15:50;102200.66;;;13.36;70.12
64739;BME280;51175;51.186;0.276;2023-02-20T02:16:29;102200.66;;;13.36;70.09
64739;BME280;51175;51.186;0.276;2023-02-20T02:18:07;102197.19;;;13.36;70.18
64739;BME280;51175;51.186;0.276;2023-02-20T02:18:48;102197.41;;;13.34;70.33
64739;BME280;51175;51.186;0.276;2023-02-20T02:29:15;102185.56;;;13.25;70.19
64739;BME280;51175;51.186;0.276;2023-02-20T02:34:04;102178.31;;;13.20;70.35
64739;BME280;51175;51.186;0.276;2023-02-20T02:39:02;102181.44;;;13.17;70.26
64739;BME280;51175;51.186;0.276;2023-02-20T02:39:39;102181.44;;;13.17;70.32
64739;BME280;51175;51.186;0.276;2023-02-20T02:40:29;102193.88;;;13.16;70.54
64739;BME280;51175;51.186;0.276;2023-02-20T02:41:06;102191.22;;;13.16;70.46
64739;BME280;51175;51.186;0.276;2023-02-20T02:41:55;102175.31;;;13.16;70.35
64739;BME280;51175;51.186;0.276;2023-02-20T02:42:41;102187.78;;;13.16;70.40
64739;BME280;51175;51.186;0.276;2023-02-20T02:44:18;102184.31;;;13.15;70.24
64739;BME280;51175;51.186;0.276;2023-02-20T02:46:33;102188.03;;;13.14;70.21
64739;BME280;51175;51.186;0.276;2023-02-20T02:50:37;102174.41;;;13.11;70.30
64739;BME280;51175;51.186;0.276;2023-02-20T02:51:18;102183.19;;;13.11;70.35
64739;BME280;51175;51.186;0.276;2023-02-20T02:51:53;102184.22;;;13.10;70.02
64739;BME280;51175;51.186;0.276;2023-02-20T02:52:25;102184.44;;;13.09;70.35
64739;BME280;51175;51.186;0.276;2023-02-20T02:53:15;102184.22;;;13.10;70.23
64739;BME280;51175;51.186;0.276;2023-02-20T02:54:35;102187.91;;;13.09;70.29
64739;BME280;51175;51.186;0.276;2023-02-20T02:55:07;102187.91;;;13.09;70.22
64739;BME280;51175;51.186;0.276;2023-02-20T02:55:38;102195.88;;;13.09;70.16
64739;BME280;51175;51.186;0.276;2023-02-20T02:56:09;102187.91;;;13.09;70.37
64739;BME280;51175;51.186;0.276;2023-02-20T02:57:41;102194.81;;;13.10;70.13
64739;BME280;51175;51.186;0.276;2023-02-20T02:58:13;102187.91;;;13.09;70.09
64739;BME280;51175;51.186;0.276;2023-02-20T02:58:45;102190.56;;;13.09;70.18
64739;BME280;51175;51.186;0.276;2023-02-20T02:59:24;102190.56;;;13.09;70.45
64739;BME280;51175;51.186;0.276;2023-02-20T03:00:54;102199.34;;;13.10;70.32
64739;BME280;51175;51.186;0.276;2023-02-20T03:01:28;102196.69;;;13.10;70.24
64739;BME280;51175;51.186;0.276;2023-02-20T03:02:06;102185.28;;;13.09;70.26
64739;BME280;51175;51.186;0.276;2023-02-20T03:03:22;102194.03;;;13.10;70.11
64739;BME280;51175;51.186;0.276;2023-02-20T03:03:56;102195.88;;;13.09;70.11
64739;BME280;51175;51.186;0.276;2023-02-20T03:04:28;102199.34;;;13.10;69.99
64739;BME280;51175;51.186;0.276;2023-02-20T03:05:04;102187.91;;;13.09;69.94
64739;BME280;51175;51.186;0.276;2023-02-20T03:07:13;102187.09;;;13.09;69.92
64739;BME280;51175;51.186;0.276;2023-02-20T03:07:48;102187.09;;;13.09;69.93
64739;BME280;51175;51.186;0.276;2023-02-20T03:08:55;102182.84;;;13.08;70.25
64739;BME280;51175;51.186;0.276;2023-02-20T03:09:35;102185.50;;;13.08;69.97
64739;BME280;51175;51.186;0.276;2023-02-20T03:10:09;102185.72;;;13.06;70.31
64739;BME280;51175;51.186;0.276;2023-02-20T03:10:42;102189.19;;;13.07;70.20
64739;BME280;51175;51.186;0.276;2023-02-20T03:11:15;102183.91;;;13.07;70.39
64739;BME280;51175;51.186;0.276;2023-02-20T03:11:47;102186.56;;;13.07;70.27
64739;BME280;51175;51.186;0.276;2023-02-20T03:12:19;102184.69;;;13.07;70.01
64739;BME280;51175;51.186;0.276;2023-02-20T03:12:51;102191.84;;;13.07;70.27
64739;BME280;51175;51.186;0.276;2023-02-20T03:13:24;102186.56;;;13.07;70.39
64739;BME280;51175;51.186;0.276;2023-02-20T03:14:20;102196.94;;;13.08;70.30
64739;BME280;51175;51.186;0.276;2023-02-20T03:15:16;102183.09;;;13.06;70.13
64739;BME280;51175;51.186;0.276;2023-02-20T03:16:04;102186.78;;;13.05;70.12
64739;BME280;51175;51.186;0.276;2023-02-20T03:18:47;102179.06;;;13.03;70.14
64739;BME280;51175;51.186;0.276;2023-02-20T03:19:25;102181.72;;;13.03;70.29
64739;BME280;51175;51.186;0.276;2023-02-20T03:19:59;102180.91;;;13.03;70.26
64739;BME280;51175;51.186;0.276;2023-02-20T03:20:32;102187.81;;;13.04;70.43
64739;BME280;51175;51.186;0.276;2023-02-20T03:21:10;102186.19;;;13.03;70.09
64739;BME280;51175;51.186;0.276;2023-02-20T03:21:44;102179.84;;;13.04;70.08
64739;BME280;51175;51.186;0.276;2023-02-20T03:23:05;102189.69;;;13.03;70.10
64739;BME280;51175;51.186;0.276;2023-02-20T03:23:41;102189.69;;;13.03;70.04
64739;BME280;51175;51.186;0.276;2023-02-20T03:24:13;102184.38;;;13.03;70.29
64739;BME280;51175;51.186;0.276;2023-02-20T03:24:49;102194.16;;;13.03;70.08